This is the latest recevied weather packets stored in our database for station/object EA7AIS-10. If no packets are shown the sender has not sent any weather packets the latest 10 day(s).
| Time | Temp. | Humidity | Pressure | Rain* | Wind** | Luminosity | Snow |
|---|---|---|---|---|---|---|---|
| 1777643168 | 23.89° C | 48% | 1016.2 hPa | - | - | - | - |
| 1777642268 | 23.33° C | 48% | 1016.1 hPa | - | - | - | - |
| 1777641367 | 23.33° C | 46% | 1016.2 hPa | - | - | - | - |
| 1777640468 | 23.33° C | 47% | 1016.1 hPa | - | - | - | - |
| 1777639568 | 23.89° C | 47% | 1015.9 hPa | - | - | - | - |
| 1777637767 | 25° C | 45% | 1016 hPa | - | - | - | - |
| 1777636867 | 24.44° C | 48% | 1016 hPa | - | - | - | - |
| 1777635967 | 23.89° C | 54% | 1015.9 hPa | - | - | - | - |
| 1777635067 | 23.89° C | 50% | 1016.1 hPa | - | - | - | - |
| 1777634167 | 23.89° C | 52% | 1016.2 hPa | - | - | - | - |
| 1777632367 | 23.89° C | 50% | 1016.3 hPa | - | - | - | - |
| 1777631467 | 23.89° C | 51% | 1016.5 hPa | - | - | - | - |
| 1777630567 | 23.33° C | 50% | 1016.6 hPa | - | - | - | - |
| 1777629667 | 23.33° C | 51% | 1016.5 hPa | - | - | - | - |
| 1777628767 | 23.89° C | 49% | 1016.5 hPa | - | - | - | - |
| 1777626966 | 26.11° C | 41% | 1016.3 hPa | - | - | - | - |
| 1777626066 | 29.44° C | 37% | 1016.4 hPa | - | - | - | - |
| 1777625166 | 30° C | 34% | 1016.2 hPa | - | - | - | - |
| 1777624266 | 29.44° C | 34% | 1016.1 hPa | - | - | - | - |
| 1777623366 | 29.44° C | 37% | 1016.1 hPa | - | - | - | - |
| 1777621566 | 26.67° C | 42% | 1015.9 hPa | - | - | - | - |
| 1777620666 | 25.56° C | 44% | 1015.8 hPa | - | - | - | - |
| 1777619766 | 26.67° C | 43% | 1015.8 hPa | - | - | - | - |
| 1777618866 | 25.56° C | 49% | 1015.8 hPa | - | - | - | - |
| 1777617966 | 21.67° C | 54% | 1016 hPa | - | - | - | - |
* Rain since midnight (hover to see other rain measurements)
** Current wind speed in m/s (hover to see current wind gust speed)